createdAt,value
2023-05-04T00:00:53.000Z,276.15
2023-05-04T00:02:59.000Z,276.15
2023-05-04T00:04:26.000Z,276.21
2023-05-04T00:06:32.000Z,276.15
2023-05-04T00:07:58.000Z,276.21
2023-05-04T00:10:05.000Z,276.09
2023-05-04T00:12:56.000Z,276.09
2023-05-04T00:14:23.000Z,276.02
2023-05-04T00:16:29.000Z,275.96
2023-05-04T00:17:56.000Z,275.96
2023-05-04T00:20:02.000Z,275.96
2023-05-04T00:21:29.000Z,275.96
2023-05-04T00:23:35.000Z,275.9
2023-05-04T00:25:02.000Z,275.9
2023-05-04T00:27:08.000Z,275.77
2023-05-04T00:28:34.000Z,275.84
2023-05-04T00:30:40.000Z,275.84
2023-05-04T00:32:07.000Z,275.84
2023-05-04T00:34:14.000Z,275.77
2023-05-04T00:35:40.000Z,275.71
2023-05-04T00:37:46.000Z,275.65
2023-05-04T00:39:13.000Z,275.65
2023-05-04T00:41:19.000Z,275.65
2023-05-04T00:42:45.000Z,275.59
2023-05-04T00:44:51.000Z,275.46
2023-05-04T00:46:18.000Z,275.52
2023-05-04T00:48:24.000Z,275.46
2023-05-04T00:51:15.000Z,275.52
2023-05-04T00:52:42.000Z,275.52
2023-05-04T00:54:48.000Z,275.52
2023-05-04T00:56:14.000Z,275.46
2023-05-04T00:58:21.000Z,275.4
2023-05-04T00:59:47.000Z,275.52
2023-05-04T01:01:53.000Z,275.52
2023-05-04T01:03:20.000Z,275.46
2023-05-04T01:05:26.000Z,275.46
2023-05-04T01:06:53.000Z,275.52
2023-05-04T01:08:59.000Z,275.4
2023-05-04T01:10:25.000Z,275.4
2023-05-04T01:12:32.000Z,275.34
2023-05-04T01:13:58.000Z,275.34
2023-05-04T01:16:04.000Z,275.34
2023-05-04T01:17:31.000Z,275.27
2023-05-04T01:19:37.000Z,275.34
2023-05-04T01:21:03.000Z,275.4
2023-05-04T01:23:09.000Z,275.46
2023-05-04T01:24:36.000Z,275.59
2023-05-04T01:26:42.000Z,275.46
2023-05-04T01:29:33.000Z,275.46
2023-05-04T01:31:00.000Z,275.4
2023-05-04T01:33:06.000Z,275.4
2023-05-04T01:34:32.000Z,275.4
2023-05-04T01:36:39.000Z,275.4
2023-05-04T01:38:05.000Z,275.34
2023-05-04T01:40:11.000Z,275.34
2023-05-04T01:41:38.000Z,275.34
2023-05-04T01:43:44.000Z,275.34
2023-05-04T01:45:10.000Z,275.34
2023-05-04T01:47:17.000Z,275.27
2023-05-04T01:48:43.000Z,275.21
2023-05-04T01:50:49.000Z,275.15
2023-05-04T01:52:16.000Z,275.09
2023-05-04T01:54:22.000Z,275.15
2023-05-04T01:55:48.000Z,275.21
2023-05-04T01:57:54.000Z,275.21
2023-05-04T01:59:21.000Z,275.27
2023-05-04T02:01:27.000Z,275.15
2023-05-04T02:02:54.000Z,275.09
2023-05-04T02:05:00.000Z,275.09
2023-05-04T02:07:51.000Z,275.09
2023-05-04T02:09:17.000Z,275.02
2023-05-04T02:11:24.000Z,275.02
2023-05-04T02:12:50.000Z,274.96
2023-05-04T02:14:56.000Z,274.9
2023-05-04T02:16:23.000Z,274.96
2023-05-04T02:18:29.000Z,274.96
2023-05-04T02:19:55.000Z,274.9
2023-05-04T02:22:01.000Z,274.84
2023-05-04T02:23:28.000Z,274.84
2023-05-04T02:25:34.000Z,274.84
2023-05-04T02:27:01.000Z,274.84
2023-05-04T02:29:07.000Z,274.9
2023-05-04T02:30:33.000Z,274.84
2023-05-04T02:32:39.000Z,274.96
2023-05-04T02:34:06.000Z,274.84
2023-05-04T02:36:12.000Z,274.9
2023-05-04T02:37:38.000Z,274.9
2023-05-04T02:39:44.000Z,274.84
2023-05-04T02:41:11.000Z,274.77
2023-05-04T02:43:17.000Z,274.84
2023-05-04T02:46:08.000Z,274.84
2023-05-04T02:47:35.000Z,274.77
2023-05-04T02:49:41.000Z,274.77
2023-05-04T02:51:08.000Z,274.84
2023-05-04T02:53:14.000Z,274.84
2023-05-04T02:54:40.000Z,274.77
2023-05-04T02:56:46.000Z,274.71
2023-05-04T02:58:13.000Z,274.71
2023-05-04T03:00:19.000Z,274.71
2023-05-04T03:01:45.000Z,274.71
2023-05-04T03:03:52.000Z,274.65
2023-05-04T03:05:18.000Z,274.71
2023-05-04T03:07:24.000Z,274.77
2023-05-04T03:08:51.000Z,274.77
2023-05-04T03:10:57.000Z,274.77
2023-05-04T03:12:24.000Z,274.71
2023-05-04T03:16:24.000Z,274.59
2023-05-04T03:20:03.000Z,274.52
2023-05-04T03:20:37.000Z,274.46
2023-05-04T03:22:04.000Z,274.52
2023-05-04T03:24:10.000Z,274.52
2023-05-04T03:26:55.000Z,274.52
2023-05-04T03:28:22.000Z,274.59
2023-05-04T03:30:28.000Z,274.59
2023-05-04T03:31:54.000Z,274.59
2023-05-04T03:34:00.000Z,274.46
2023-05-04T03:35:27.000Z,274.46
2023-05-04T03:37:33.000Z,274.4
2023-05-04T03:38:59.000Z,274.4
2023-05-04T03:41:05.000Z,274.4
2023-05-04T03:42:32.000Z,274.34
2023-05-04T03:44:38.000Z,274.4
2023-05-04T03:46:05.000Z,274.34
2023-05-04T03:48:11.000Z,274.4
2023-05-04T03:49:37.000Z,274.46
2023-05-04T03:51:43.000Z,274.46
2023-05-04T03:53:10.000Z,274.4
2023-05-04T03:55:16.000Z,274.4
2023-05-04T03:56:43.000Z,274.4
2023-05-04T03:58:49.000Z,274.4
2023-05-04T04:00:15.000Z,274.4
2023-05-04T04:02:21.000Z,274.4
2023-05-04T04:05:12.000Z,274.4
2023-05-04T04:06:39.000Z,274.4
2023-05-04T04:08:47.000Z,274.34
2023-05-04T04:10:14.000Z,274.34
2023-05-04T04:12:20.000Z,274.4
2023-05-04T04:13:46.000Z,274.4
2023-05-04T04:15:52.000Z,274.34
2023-05-04T04:17:19.000Z,274.34
2023-05-04T04:19:25.000Z,274.4
2023-05-04T04:20:52.000Z,274.34
2023-05-04T04:22:58.000Z,274.34
2023-05-04T04:24:24.000Z,274.4
2023-05-04T04:26:30.000Z,274.4
2023-05-04T04:27:57.000Z,274.4
2023-05-04T04:30:03.000Z,274.52
2023-05-04T04:31:30.000Z,274.52
2023-05-04T04:33:36.000Z,274.59
2023-05-04T04:35:03.000Z,274.65
2023-05-04T04:37:09.000Z,274.71
2023-05-04T04:38:35.000Z,274.77
2023-05-04T04:40:41.000Z,274.84
2023-05-04T04:43:33.000Z,274.9
2023-05-04T04:44:59.000Z,274.96
2023-05-04T04:47:05.000Z,275.02
2023-05-04T04:48:32.000Z,275.09
2023-05-04T04:50:38.000Z,275.21
2023-05-04T04:52:04.000Z,275.21
2023-05-04T04:54:11.000Z,275.34
2023-05-04T04:55:37.000Z,275.4
2023-05-04T04:57:43.000Z,275.4
2023-05-04T04:59:10.000Z,275.46
2023-05-04T05:01:16.000Z,275.52
2023-05-04T05:02:42.000Z,275.59
2023-05-04T05:04:48.000Z,275.65
2023-05-04T05:06:15.000Z,275.71
2023-05-04T05:08:21.000Z,275.77
2023-05-04T05:09:48.000Z,275.77
2023-05-04T05:11:54.000Z,275.84
2023-05-04T05:13:20.000Z,275.77
2023-05-04T05:15:26.000Z,275.9
2023-05-04T05:16:53.000Z,275.96
2023-05-04T05:18:59.000Z,276.02
2023-05-04T05:21:50.000Z,276.15
2023-05-04T05:23:17.000Z,276.21
2023-05-04T05:25:23.000Z,276.21
2023-05-04T05:26:49.000Z,276.34
2023-05-04T05:28:55.000Z,276.34
2023-05-04T05:30:22.000Z,276.34
2023-05-04T05:32:28.000Z,276.4
2023-05-04T05:33:54.000Z,276.4
2023-05-04T05:36:00.000Z,276.52
2023-05-04T05:37:27.000Z,276.59
2023-05-04T05:39:33.000Z,276.65
2023-05-04T05:41:00.000Z,276.71
2023-05-04T05:43:06.000Z,276.77
2023-05-04T05:44:32.000Z,276.9
2023-05-04T05:46:38.000Z,276.96
2023-05-04T05:48:05.000Z,277.09
2023-05-04T05:50:11.000Z,277.21
2023-05-04T05:51:38.000Z,277.27
2023-05-04T05:53:44.000Z,277.4
2023-05-04T05:55:11.000Z,277.46
2023-05-04T05:57:17.000Z,277.46
2023-05-04T06:00:08.000Z,277.52
2023-05-04T06:01:34.000Z,277.65
2023-05-04T06:03:40.000Z,277.77
2023-05-04T06:05:07.000Z,277.84
2023-05-04T06:07:13.000Z,277.96
2023-05-04T06:08:40.000Z,278.02
2023-05-04T06:10:46.000Z,278.09
2023-05-04T06:12:12.000Z,278.15
2023-05-04T06:14:19.000Z,278.34
2023-05-04T06:15:45.000Z,278.52
2023-05-04T06:17:51.000Z,278.65
2023-05-04T06:19:18.000Z,278.71
2023-05-04T06:21:24.000Z,278.9
2023-05-04T06:22:51.000Z,279.02
2023-05-04T06:24:57.000Z,279.09
2023-05-04T06:26:30.000Z,279.21
2023-05-04T06:28:36.000Z,279.34
2023-05-04T06:30:03.000Z,279.4
2023-05-04T06:32:09.000Z,279.46
2023-05-04T06:33:36.000Z,279.52
2023-05-04T06:35:42.000Z,279.65
2023-05-04T06:38:33.000Z,279.77
2023-05-04T06:40:03.000Z,279.77
2023-05-04T06:42:09.000Z,279.84
2023-05-04T06:43:36.000Z,279.96
2023-05-04T06:45:42.000Z,280.02
2023-05-04T06:47:09.000Z,280.09
2023-05-04T06:49:15.000Z,280.02
2023-05-04T06:50:41.000Z,280.09
2023-05-04T06:52:48.000Z,280.21
2023-05-04T06:54:14.000Z,280.27
2023-05-04T06:56:20.000Z,280.4
2023-05-04T06:57:47.000Z,280.34
2023-05-04T06:59:53.000Z,280.4
2023-05-04T07:01:20.000Z,280.46
2023-05-04T07:03:26.000Z,280.59
2023-05-04T07:04:53.000Z,280.59
2023-05-04T07:06:59.000Z,280.71
2023-05-04T07:08:25.000Z,280.84
2023-05-04T07:10:31.000Z,280.96
2023-05-04T07:11:58.000Z,281.02
2023-05-04T07:14:04.000Z,281.09
2023-05-04T07:16:58.000Z,281.15
2023-05-04T07:18:25.000Z,281.27
2023-05-04T07:20:31.000Z,281.27
2023-05-04T07:21:57.000Z,281.27
2023-05-04T07:24:03.000Z,281.34
2023-05-04T07:25:30.000Z,281.46
2023-05-04T07:27:36.000Z,281.52
2023-05-04T07:29:03.000Z,281.52
2023-05-04T07:31:09.000Z,281.59
2023-05-04T07:32:35.000Z,281.59
2023-05-04T07:34:41.000Z,281.77
2023-05-04T07:36:11.000Z,281.77
2023-05-04T07:38:17.000Z,281.96
2023-05-04T07:39:43.000Z,282.09
2023-05-04T07:41:49.000Z,282.21
2023-05-04T07:43:16.000Z,282.34
2023-05-04T07:45:22.000Z,282.4
2023-05-04T07:46:49.000Z,282.59
2023-05-04T07:48:55.000Z,282.65
2023-05-04T07:50:21.000Z,282.71
2023-05-04T07:52:28.000Z,282.9
2023-05-04T07:55:19.000Z,283.02
2023-05-04T07:56:45.000Z,283.09
2023-05-04T07:58:51.000Z,283.27
2023-05-04T08:00:18.000Z,283.34
2023-05-04T08:02:24.000Z,283.52
2023-05-04T08:03:51.000Z,283.59
2023-05-04T08:05:57.000Z,283.71
2023-05-04T08:07:24.000Z,283.71
2023-05-04T08:09:30.000Z,283.84
2023-05-04T08:10:56.000Z,283.9
2023-05-04T08:13:20.000Z,284.02
2023-05-04T08:14:46.000Z,284.09
2023-05-04T08:16:53.000Z,284.21
2023-05-04T08:18:19.000Z,284.27
2023-05-04T08:20:25.000Z,284.4
2023-05-04T08:21:52.000Z,284.52
2023-05-04T08:23:58.000Z,284.71
2023-05-04T08:25:24.000Z,284.71
2023-05-04T08:27:30.000Z,284.84
2023-05-04T08:28:57.000Z,284.96
2023-05-04T08:31:03.000Z,285.02
2023-05-04T08:33:54.000Z,285.15
2023-05-04T08:35:21.000Z,285.21
2023-05-04T08:37:27.000Z,285.34
2023-05-04T08:38:53.000Z,285.4
2023-05-04T08:40:59.000Z,285.59
2023-05-04T08:42:26.000Z,285.65
2023-05-04T08:44:32.000Z,285.96
2023-05-04T08:45:58.000Z,286.09
2023-05-04T08:48:05.000Z,286.15
2023-05-04T08:49:31.000Z,286.21
2023-05-04T08:51:37.000Z,286.34
2023-05-04T08:53:04.000Z,286.46
2023-05-04T08:55:10.000Z,286.59
2023-05-04T08:56:36.000Z,286.77
2023-05-04T08:58:43.000Z,286.9
2023-05-04T09:00:09.000Z,286.96
2023-05-04T09:02:15.000Z,287.15
2023-05-04T09:03:42.000Z,287.21
2023-05-04T09:05:48.000Z,287.21
2023-05-04T09:07:15.000Z,287.21
2023-05-04T09:09:21.000Z,287.27
2023-05-04T09:12:12.000Z,287.4
2023-05-04T09:13:39.000Z,287.46
2023-05-04T09:15:45.000Z,287.52
2023-05-04T09:17:11.000Z,287.59
2023-05-04T09:19:17.000Z,287.65
2023-05-04T09:20:44.000Z,287.77
2023-05-04T09:22:50.000Z,288.02
2023-05-04T09:24:17.000Z,288.09
2023-05-04T09:26:23.000Z,288.15
2023-05-04T09:27:49.000Z,288.27
2023-05-04T09:29:55.000Z,288.21
2023-05-04T09:31:22.000Z,288.15
2023-05-04T09:33:28.000Z,288.34
2023-05-04T09:34:55.000Z,288.34
2023-05-04T09:37:01.000Z,288.34
2023-05-04T09:38:27.000Z,288.4
2023-05-04T09:40:33.000Z,288.46
2023-05-04T09:42:00.000Z,288.52
2023-05-04T09:44:06.000Z,288.46
2023-05-04T09:45:33.000Z,288.46
2023-05-04T09:47:39.000Z,288.59
2023-05-04T09:50:30.000Z,288.71
2023-05-04T09:51:56.000Z,288.84
2023-05-04T09:54:02.000Z,288.84
2023-05-04T09:55:29.000Z,288.9
2023-05-04T09:57:35.000Z,288.9
2023-05-04T09:59:02.000Z,288.9
2023-05-04T10:01:08.000Z,288.9
2023-05-04T10:02:34.000Z,289.02
2023-05-04T10:04:40.000Z,289.15
2023-05-04T10:06:07.000Z,289.15
2023-05-04T10:08:13.000Z,289.27
2023-05-04T10:09:40.000Z,289.27
2023-05-04T10:11:46.000Z,289.46
2023-05-04T10:13:12.000Z,289.52
2023-05-04T10:15:18.000Z,289.52
2023-05-04T10:16:45.000Z,289.65
2023-05-04T10:18:51.000Z,289.77
2023-05-04T10:20:18.000Z,289.9
2023-05-04T10:22:24.000Z,290.02
2023-05-04T10:23:50.000Z,290.15
2023-05-04T10:25:57.000Z,290.21
2023-05-04T10:28:48.000Z,290.46
2023-05-04T10:30:14.000Z,290.46
2023-05-04T10:32:20.000Z,290.46
2023-05-04T10:33:47.000Z,290.52
2023-05-04T10:35:53.000Z,290.52
2023-05-04T10:37:20.000Z,290.65
2023-05-04T10:39:26.000Z,290.71
2023-05-04T10:40:52.000Z,290.77
2023-05-04T10:42:58.000Z,290.71
2023-05-04T10:44:25.000Z,290.84
2023-05-04T10:46:31.000Z,290.9
2023-05-04T10:47:57.000Z,290.96
2023-05-04T10:50:04.000Z,291.21
2023-05-04T10:51:30.000Z,291.15
2023-05-04T10:53:52.000Z,291.21
2023-05-04T10:55:19.000Z,291.34
2023-05-04T10:57:25.000Z,291.4
2023-05-04T10:58:52.000Z,291.65
2023-05-04T11:00:58.000Z,291.65
2023-05-04T11:02:24.000Z,291.71
2023-05-04T11:04:31.000Z,291.65
2023-05-04T11:07:21.000Z,291.65
2023-05-04T11:08:48.000Z,291.77
2023-05-04T11:10:54.000Z,291.77
2023-05-04T11:12:21.000Z,291.77
2023-05-04T11:14:27.000Z,291.84
2023-05-04T11:15:53.000Z,291.9
2023-05-04T11:17:59.000Z,291.84
2023-05-04T11:19:26.000Z,291.9
2023-05-04T11:21:32.000Z,292.15
2023-05-04T11:22:59.000Z,292.21
2023-05-04T11:25:05.000Z,292.21
2023-05-04T11:26:31.000Z,292.4
2023-05-04T11:28:37.000Z,292.46
2023-05-04T11:30:04.000Z,292.46
2023-05-04T11:32:10.000Z,292.46
2023-05-04T11:33:37.000Z,292.52
2023-05-04T11:35:43.000Z,292.4
2023-05-04T11:37:09.000Z,292.4
2023-05-04T11:39:15.000Z,292.34
2023-05-04T11:40:42.000Z,292.34
2023-05-04T11:42:48.000Z,292.34
2023-05-04T11:45:39.000Z,292.52
2023-05-04T11:47:06.000Z,292.65
2023-05-04T11:49:12.000Z,292.71
2023-05-04T11:50:39.000Z,292.77
2023-05-04T11:52:45.000Z,292.71
2023-05-04T11:54:11.000Z,292.71
2023-05-04T11:56:17.000Z,292.71
2023-05-04T11:57:44.000Z,292.71
2023-05-04T11:59:50.000Z,292.71
2023-05-04T12:01:16.000Z,292.84
2023-05-04T12:03:23.000Z,292.96
2023-05-04T12:05:00.000Z,293.02
2023-05-04T12:07:06.000Z,292.9
2023-05-04T12:08:33.000Z,292.96
2023-05-04T12:10:39.000Z,293.09
2023-05-04T12:12:05.000Z,293.15
2023-05-04T12:14:11.000Z,293.21
2023-05-04T12:15:38.000Z,293.34
2023-05-04T12:17:44.000Z,293.4
2023-05-04T12:19:11.000Z,293.34
2023-05-04T12:21:17.000Z,293.27
2023-05-04T12:24:08.000Z,293.4
2023-05-04T12:25:35.000Z,293.4
2023-05-04T12:27:59.000Z,293.59
2023-05-04T12:29:25.000Z,293.65
2023-05-04T12:31:31.000Z,293.9
2023-05-04T12:32:58.000Z,293.9
2023-05-04T12:35:04.000Z,293.9
2023-05-04T12:36:31.000Z,293.96
2023-05-04T12:38:37.000Z,294.09
2023-05-04T12:40:04.000Z,294.09
2023-05-04T12:42:31.000Z,294.09
2023-05-04T12:43:58.000Z,294.02
2023-05-04T12:46:04.000Z,294.02
2023-05-04T12:47:30.000Z,293.71
2023-05-04T12:49:37.000Z,293.71
2023-05-04T12:51:03.000Z,293.9
2023-05-04T12:53:09.000Z,294.15
2023-05-04T12:54:36.000Z,294.34
2023-05-04T12:56:42.000Z,294.52
2023-05-04T12:58:09.000Z,294.71
2023-05-04T13:00:15.000Z,294.71
2023-05-04T13:03:06.000Z,294.59
2023-05-04T13:04:33.000Z,294.71
2023-05-04T13:06:39.000Z,294.59
2023-05-04T13:08:05.000Z,294.71
2023-05-04T13:10:11.000Z,294.77
2023-05-04T13:11:38.000Z,294.9
2023-05-04T13:13:44.000Z,295.02
2023-05-04T13:15:11.000Z,295.21
2023-05-04T13:17:17.000Z,295.21
2023-05-04T13:18:44.000Z,295.09
2023-05-04T13:20:50.000Z,295.15
2023-05-04T13:22:16.000Z,295.15
2023-05-04T13:24:23.000Z,295.34
2023-05-04T13:25:49.000Z,295.34
2023-05-04T13:27:55.000Z,295.09
2023-05-04T13:29:22.000Z,295.15
2023-05-04T13:31:28.000Z,295.4
2023-05-04T13:32:55.000Z,295.4
2023-05-04T13:35:01.000Z,295.46
2023-05-04T13:36:28.000Z,295.52
2023-05-04T13:38:34.000Z,295.4
2023-05-04T13:41:25.000Z,295.52
2023-05-04T13:42:52.000Z,295.52
2023-05-04T13:44:58.000Z,295.59
2023-05-04T13:46:25.000Z,295.59
2023-05-04T13:48:31.000Z,295.46
2023-05-04T13:49:57.000Z,295.52
2023-05-04T13:52:03.000Z,295.46
2023-05-04T13:53:30.000Z,295.46
2023-05-04T13:55:36.000Z,295.71
2023-05-04T13:57:03.000Z,295.71
2023-05-04T13:59:09.000Z,295.59
2023-05-04T14:00:35.000Z,295.59
2023-05-04T14:02:42.000Z,295.84
2023-05-04T14:04:08.000Z,295.96
2023-05-04T14:06:15.000Z,296.09
2023-05-04T14:07:41.000Z,296.15
2023-05-04T14:09:47.000Z,296.15
2023-05-04T14:11:14.000Z,296.02
2023-05-04T14:13:20.000Z,296.02
2023-05-04T14:14:47.000Z,295.96
2023-05-04T14:16:53.000Z,296.21
2023-05-04T14:19:44.000Z,296.15
2023-05-04T14:21:10.000Z,296.09
2023-05-04T14:23:17.000Z,296.09
2023-05-04T14:24:43.000Z,296.21
2023-05-04T14:26:49.000Z,296.46
2023-05-04T14:28:16.000Z,296.46
2023-05-04T14:30:22.000Z,296.34
2023-05-04T14:31:49.000Z,296.46
2023-05-04T14:33:55.000Z,296.46
2023-05-04T14:35:21.000Z,296.4
2023-05-04T14:37:28.000Z,296.4
2023-05-04T14:38:54.000Z,296.46
2023-05-04T14:41:00.000Z,296.52
2023-05-04T14:42:27.000Z,296.59
2023-05-04T14:44:33.000Z,296.65
2023-05-04T14:45:59.000Z,296.59
2023-05-04T14:48:06.000Z,296.15
2023-05-04T14:49:32.000Z,296.46
2023-05-04T14:51:41.000Z,296.34
2023-05-04T14:53:08.000Z,295.96
2023-05-04T14:55:14.000Z,296.15
2023-05-04T14:58:05.000Z,296.34
2023-05-04T14:59:32.000Z,296.4
2023-05-04T15:01:38.000Z,296.52
2023-05-04T15:03:05.000Z,296.4
2023-05-04T15:05:11.000Z,296.46
2023-05-04T15:06:37.000Z,296.46
2023-05-04T15:08:44.000Z,296.59
2023-05-04T15:10:10.000Z,296.52
2023-05-04T15:12:16.000Z,296.65
2023-05-04T15:13:43.000Z,296.59
2023-05-04T15:15:49.000Z,296.65
2023-05-04T15:17:15.000Z,296.65
2023-05-04T15:19:24.000Z,296.59
2023-05-04T15:20:50.000Z,296.46
2023-05-04T15:22:57.000Z,296.34
2023-05-04T15:24:23.000Z,296.34
2023-05-04T15:26:29.000Z,296.21
2023-05-04T15:27:56.000Z,296.27
2023-05-04T15:30:02.000Z,296.34
2023-05-04T15:31:29.000Z,296.27
2023-05-04T15:33:35.000Z,296.27
2023-05-04T15:36:27.000Z,296.21
2023-05-04T15:37:53.000Z,296.27
2023-05-04T15:39:59.000Z,296.34
2023-05-04T15:41:27.000Z,296.59
2023-05-04T15:43:33.000Z,296.52
2023-05-04T15:45:00.000Z,296.52
2023-05-04T15:47:06.000Z,296.59
2023-05-04T15:48:33.000Z,296.52
2023-05-04T15:50:39.000Z,296.52
2023-05-04T15:52:05.000Z,296.46
2023-05-04T15:54:12.000Z,296.46
2023-05-04T15:55:38.000Z,296.52
2023-05-04T15:57:45.000Z,296.4
2023-05-04T15:59:11.000Z,296.4
2023-05-04T16:01:17.000Z,296.4
2023-05-04T16:02:44.000Z,296.59
2023-05-04T16:04:50.000Z,296.65
2023-05-04T16:06:17.000Z,296.71
2023-05-04T16:08:24.000Z,296.52
2023-05-04T16:09:50.000Z,296.4
2023-05-04T16:11:56.000Z,296.34
2023-05-04T16:14:48.000Z,296.34
2023-05-04T16:16:14.000Z,296.34
2023-05-04T16:18:20.000Z,296.27
2023-05-04T16:19:47.000Z,296.34
2023-05-04T16:21:53.000Z,296.46
2023-05-04T16:23:20.000Z,296.34
2023-05-04T16:25:26.000Z,296.34
2023-05-04T16:26:52.000Z,296.4
2023-05-04T16:28:58.000Z,296.34
2023-05-04T16:30:25.000Z,296.21
2023-05-04T16:32:31.000Z,296.34
2023-05-04T16:33:58.000Z,296.34
2023-05-04T16:36:04.000Z,295.96
2023-05-04T16:37:30.000Z,295.65
2023-05-04T16:39:37.000Z,295.46
2023-05-04T16:41:03.000Z,295.34
2023-05-04T16:43:09.000Z,295.09
2023-05-04T16:44:36.000Z,295.09
2023-05-04T16:46:42.000Z,295.09
2023-05-04T16:48:09.000Z,295.02
2023-05-04T16:50:15.000Z,294.84
2023-05-04T16:53:06.000Z,294.84
2023-05-04T16:54:33.000Z,295.02
2023-05-04T16:56:39.000Z,295.02
2023-05-04T16:58:06.000Z,295.15
2023-05-04T17:00:12.000Z,295.15
2023-05-04T17:01:38.000Z,295.02
2023-05-04T17:03:45.000Z,295.15
2023-05-04T17:05:12.000Z,294.84
2023-05-04T17:07:18.000Z,295.02
2023-05-04T17:08:44.000Z,294.84
2023-05-04T17:10:51.000Z,294.71
2023-05-04T17:12:17.000Z,294.59
2023-05-04T17:14:23.000Z,294.4
2023-05-04T17:15:50.000Z,294.21
2023-05-04T17:17:56.000Z,294.4
2023-05-04T17:19:22.000Z,294.4
2023-05-04T17:21:29.000Z,294.4
2023-05-04T17:22:55.000Z,294.27
2023-05-04T17:25:02.000Z,294.27
2023-05-04T17:26:28.000Z,294.09
2023-05-04T17:28:34.000Z,294.02
2023-05-04T17:31:25.000Z,293.96
2023-05-04T17:32:52.000Z,293.9
2023-05-04T17:34:58.000Z,293.46
2023-05-04T17:36:36.000Z,293.46
2023-05-04T17:38:42.000Z,293.52
2023-05-04T17:40:09.000Z,293.46
2023-05-04T17:42:15.000Z,293.4
2023-05-04T17:43:42.000Z,293.4
2023-05-04T17:45:48.000Z,293.27
2023-05-04T17:47:15.000Z,293.21
2023-05-04T17:49:21.000Z,293.21
2023-05-04T17:50:47.000Z,293.09
2023-05-04T17:52:53.000Z,293.09
2023-05-04T17:54:20.000Z,293.02
2023-05-04T17:56:26.000Z,292.96
2023-05-04T17:57:53.000Z,292.9
2023-05-04T17:59:59.000Z,292.4
2023-05-04T18:01:26.000Z,292.15
2023-05-04T18:03:32.000Z,291.96
2023-05-04T18:04:59.000Z,291.96
2023-05-04T18:07:05.000Z,291.71
2023-05-04T18:09:56.000Z,291.34
2023-05-04T18:11:23.000Z,291.21
2023-05-04T18:13:29.000Z,291.02
2023-05-04T18:14:55.000Z,290.96
2023-05-04T18:17:02.000Z,290.77
2023-05-04T18:18:28.000Z,290.52
2023-05-04T18:20:34.000Z,290.34
2023-05-04T18:22:01.000Z,290.27
2023-05-04T18:24:07.000Z,290.15
2023-05-04T18:25:33.000Z,290.09
2023-05-04T18:27:39.000Z,289.96
2023-05-04T18:29:06.000Z,289.84
2023-05-04T18:31:23.000Z,289.65
2023-05-04T18:32:49.000Z,289.65
2023-05-04T18:34:56.000Z,289.46
2023-05-04T18:36:22.000Z,289.4
2023-05-04T18:38:28.000Z,289.27
2023-05-04T18:39:55.000Z,289.09
2023-05-04T18:42:01.000Z,288.96
2023-05-04T18:43:27.000Z,288.96
2023-05-04T18:45:34.000Z,288.59
2023-05-04T18:48:25.000Z,288.46
2023-05-04T18:49:51.000Z,288.52
2023-05-04T18:51:58.000Z,288.52
2023-05-04T18:53:24.000Z,288.4
2023-05-04T18:55:30.000Z,288.09
2023-05-04T18:56:57.000Z,287.96
2023-05-04T18:59:03.000Z,287.77
2023-05-04T19:00:29.000Z,287.65
2023-05-04T19:02:35.000Z,287.59
2023-05-04T19:04:02.000Z,287.46
2023-05-04T19:06:08.000Z,287.52
2023-05-04T19:07:35.000Z,287.52
2023-05-04T19:09:41.000Z,287.65
2023-05-04T19:11:07.000Z,287.52
2023-05-04T19:13:13.000Z,287.09
2023-05-04T19:14:40.000Z,286.9
2023-05-04T19:16:46.000Z,286.84
2023-05-04T19:18:13.000Z,286.77
2023-05-04T19:20:19.000Z,286.71
2023-05-04T19:21:45.000Z,286.71
2023-05-04T19:23:51.000Z,286.52
2023-05-04T19:26:43.000Z,286.46
2023-05-04T19:28:09.000Z,286.4
2023-05-04T19:30:16.000Z,286.34
2023-05-04T19:31:42.000Z,286.27
2023-05-04T19:33:48.000Z,286.21
2023-05-04T19:35:15.000Z,286.09
2023-05-04T19:37:21.000Z,286.02
2023-05-04T19:38:47.000Z,285.96
2023-05-04T19:40:54.000Z,285.9
2023-05-04T19:42:20.000Z,285.9
2023-05-04T19:44:26.000Z,285.84
2023-05-04T19:45:53.000Z,285.9
2023-05-04T19:48:01.000Z,285.84
2023-05-04T19:49:28.000Z,285.9
2023-05-04T19:51:34.000Z,285.65
2023-05-04T19:53:00.000Z,285.59
2023-05-04T19:55:06.000Z,285.46
2023-05-04T19:56:33.000Z,285.4
2023-05-04T19:58:39.000Z,285.21
2023-05-04T20:00:05.000Z,285.21
2023-05-04T20:02:12.000Z,285.09
2023-05-04T20:05:03.000Z,285.09
2023-05-04T20:06:30.000Z,284.96
2023-05-04T20:08:36.000Z,284.84
2023-05-04T20:10:02.000Z,284.71
2023-05-04T20:12:09.000Z,284.59
2023-05-04T20:13:35.000Z,284.59
2023-05-04T20:15:42.000Z,284.59
2023-05-04T20:17:08.000Z,284.52
2023-05-04T20:19:14.000Z,284.46
2023-05-04T20:20:41.000Z,284.65
2023-05-04T20:22:47.000Z,284.77
2023-05-04T20:24:13.000Z,284.71
2023-05-04T20:26:19.000Z,284.52
2023-05-04T20:27:46.000Z,284.52
2023-05-04T20:29:52.000Z,284.46
2023-05-04T20:31:19.000Z,284.4
2023-05-04T20:33:25.000Z,284.34
2023-05-04T20:34:51.000Z,284.21
2023-05-04T20:36:57.000Z,284.21
2023-05-04T20:38:24.000Z,284.21
2023-05-04T20:40:30.000Z,284.09
2023-05-04T20:43:22.000Z,284.02
2023-05-04T20:44:48.000Z,284.02
2023-05-04T20:46:54.000Z,283.96
2023-05-04T20:48:21.000Z,283.84
2023-05-04T20:50:27.000Z,283.84
2023-05-04T20:51:53.000Z,283.77
2023-05-04T20:54:00.000Z,283.71
2023-05-04T20:55:26.000Z,283.65
2023-05-04T20:57:32.000Z,283.59
2023-05-04T20:58:59.000Z,283.59
2023-05-04T21:01:05.000Z,283.52
2023-05-04T21:02:32.000Z,283.59
2023-05-04T21:04:39.000Z,283.34
2023-05-04T21:06:05.000Z,283.4
2023-05-04T21:08:11.000Z,283.34
2023-05-04T21:09:38.000Z,283.34
2023-05-04T21:11:44.000Z,283.21
2023-05-04T21:13:10.000Z,283.15
2023-05-04T21:15:16.000Z,283.09
2023-05-04T21:16:43.000Z,283.09
2023-05-04T21:18:49.000Z,283.09
2023-05-04T21:21:40.000Z,283.09
2023-05-04T21:23:07.000Z,283.02
2023-05-04T21:25:13.000Z,283.02
2023-05-04T21:26:40.000Z,282.96
2023-05-04T21:28:46.000Z,282.96
2023-05-04T21:30:12.000Z,282.9
2023-05-04T21:32:19.000Z,282.96
2023-05-04T21:33:45.000Z,282.84
2023-05-04T21:35:51.000Z,282.77
2023-05-04T21:37:18.000Z,282.77
2023-05-04T21:39:24.000Z,282.71
2023-05-04T21:40:51.000Z,282.65
2023-05-04T21:42:57.000Z,282.59
2023-05-04T21:44:23.000Z,282.59
2023-05-04T21:46:30.000Z,282.59
2023-05-04T21:47:56.000Z,282.59
2023-05-04T21:50:02.000Z,282.46
2023-05-04T21:51:29.000Z,282.34
2023-05-04T21:53:35.000Z,282.34
2023-05-04T21:55:02.000Z,282.27
2023-05-04T21:57:08.000Z,282.27
2023-05-04T21:59:59.000Z,282.15
2023-05-04T22:01:26.000Z,282.02
2023-05-04T22:03:32.000Z,282.02
2023-05-04T22:04:59.000Z,281.96
2023-05-04T22:07:05.000Z,281.96
2023-05-04T22:08:31.000Z,281.96
2023-05-04T22:10:37.000Z,281.9
2023-05-04T22:12:04.000Z,281.84
2023-05-04T22:14:10.000Z,281.84
2023-05-04T22:15:36.000Z,281.77
2023-05-04T22:17:54.000Z,281.71
2023-05-04T22:19:21.000Z,281.59
2023-05-04T22:21:27.000Z,281.65
2023-05-04T22:22:53.000Z,281.59
2023-05-04T22:24:59.000Z,281.65
2023-05-04T22:26:26.000Z,281.59
2023-05-04T22:28:32.000Z,281.71
2023-05-04T22:29:59.000Z,281.71
2023-05-04T22:32:05.000Z,281.65
2023-05-04T22:33:31.000Z,281.65
2023-05-04T22:35:37.000Z,281.59
2023-05-04T22:38:29.000Z,281.52
2023-05-04T22:39:55.000Z,281.52
2023-05-04T22:42:01.000Z,281.4
2023-05-04T22:43:28.000Z,281.4
2023-05-04T22:45:34.000Z,281.46
2023-05-04T22:47:00.000Z,281.46
2023-05-04T22:49:07.000Z,281.46
2023-05-04T22:50:33.000Z,281.4
2023-05-04T22:52:39.000Z,281.4
2023-05-04T22:54:06.000Z,281.34
2023-05-04T22:56:12.000Z,281.34
2023-05-04T22:57:38.000Z,281.4